Aviation Digital Data Service (ADDS)

Output produced by METARs form (0206 UTC 25 February 2021)
found at http://www.aviationweather.gov/metar/data/
 
KDOV 250156Z 18006KT 10SM CLR 12/03 A2985 SLP180 WND DATA ESTMD ALSTG/SLP ESTMD
TAF KDOV 250000Z 2500/2606 22009KT 9999 FEW100 WS020/23045KT 510102 QNH2987INS 
     BECMG 2510/2511 31012KT 9999 FEW020 510102 QNH3004INS 
     BECMG 2514/2515 33015G25KT 9999 SKC 510102 QNH3018INS 
     BECMG 2517/2518 32015KT 9999 SKC QNH3022INS 
     BECMG 2519/2520 VRB06KT 9999 FEW160 QNH3026INS TX08/2500Z TN05/2511Z